createdAt,value
2023-03-24T00:01:36.184Z,12.00
2023-03-24T00:04:03.721Z,12.10
2023-03-24T00:06:34.475Z,12.30
2023-03-24T00:09:04.854Z,12.30
2023-03-24T00:11:34.483Z,12.50
2023-03-24T00:14:04.642Z,12.60
2023-03-24T00:16:34.727Z,12.80
2023-03-24T00:19:01.591Z,13.10
2023-03-24T00:21:28.449Z,13.10
2023-03-24T00:23:58.324Z,13.30
2023-03-24T00:26:25.853Z,13.30
2023-03-24T00:28:53.742Z,13.20
2023-03-24T00:31:22.116Z,13.20
2023-03-24T00:33:51.092Z,13.20
2023-03-24T00:36:20.618Z,13.20
2023-03-24T00:38:48.571Z,13.20
2023-03-24T00:41:19.825Z,13.10
2023-03-24T00:43:47.696Z,13.10
2023-03-24T00:46:27.418Z,13.20
2023-03-24T00:48:58.034Z,13.20
2023-03-24T00:51:24.988Z,13.10
2023-03-24T00:53:57.852Z,13.10
2023-03-24T00:56:29.341Z,12.90
2023-03-24T00:58:57.932Z,12.70
2023-03-24T01:01:26.105Z,12.60
2023-03-24T01:03:53.447Z,12.60
2023-03-24T01:06:22.438Z,12.50
2023-03-24T01:08:49.807Z,12.50
2023-03-24T01:11:16.835Z,12.40
2023-03-24T01:13:44.080Z,12.40
2023-03-24T01:16:10.992Z,12.50
2023-03-24T01:18:40.760Z,12.70
2023-03-24T01:21:08.444Z,12.70
2023-03-24T01:23:35.687Z,12.80
2023-03-24T01:26:06.293Z,12.80
2023-03-24T01:28:33.808Z,12.90
2023-03-24T01:31:00.796Z,13.10
2023-03-24T01:33:27.905Z,13.20
2023-03-24T01:35:54.794Z,13.20
2023-03-24T01:38:21.735Z,13.20
2023-03-24T01:40:48.881Z,13.20
2023-03-24T01:43:18.076Z,13.10
2023-03-24T01:45:51.436Z,13.20
2023-03-24T01:48:22.195Z,13.10
2023-03-24T01:50:52.750Z,13.20
2023-03-24T01:53:20.600Z,13.10
2023-03-24T01:55:48.432Z,13.20
2023-03-24T01:58:19.275Z,13.10
2023-03-24T02:01:06.803Z,13.10
2023-03-24T02:04:04.009Z,13.10
2023-03-24T02:06:33.441Z,13.10
2023-03-24T02:09:01.613Z,13.00
2023-03-24T02:11:31.729Z,13.00
2023-03-24T02:14:02.878Z,13.00
2023-03-24T02:16:37.404Z,13.10
2023-03-24T02:19:04.317Z,13.10
2023-03-24T02:21:50.336Z,13.10
2023-03-24T02:24:37.474Z,13.30
2023-03-24T02:27:09.762Z,13.30
2023-03-24T02:29:55.837Z,13.40
2023-03-24T02:32:35.293Z,13.30
2023-03-24T02:35:05.419Z,13.30
2023-03-24T02:37:42.423Z,13.30
2023-03-24T02:40:28.369Z,13.20
2023-03-24T02:43:01.428Z,13.30
2023-03-24T02:45:36.589Z,13.40
2023-03-24T02:48:10.521Z,13.30
2023-03-24T02:50:52.796Z,13.30
2023-03-24T02:53:23.582Z,13.30
2023-03-24T02:56:33.948Z,13.10
2023-03-24T02:59:14.128Z,12.90
2023-03-24T03:01:44.135Z,12.90
2023-03-24T03:04:41.575Z,13.10
2023-03-24T03:07:10.161Z,12.90
2023-03-24T03:09:44.004Z,12.90
2023-03-24T03:12:12.419Z,13.00
2023-03-24T03:14:41.833Z,13.00
2023-03-24T03:17:14.688Z,13.10
2023-03-24T03:19:45.051Z,13.10
2023-03-24T03:22:16.375Z,13.20
2023-03-24T03:24:45.273Z,13.20
2023-03-24T03:27:14.878Z,13.20
2023-03-24T03:29:46.213Z,13.30
2023-03-24T03:32:17.652Z,13.30
2023-03-24T03:35:03.577Z,13.20
2023-03-24T03:37:36.616Z,13.20
2023-03-24T03:40:12.398Z,13.20
2023-03-24T03:42:44.667Z,13.10
2023-03-24T03:45:14.082Z,13.20
2023-03-24T03:47:41.755Z,13.20
2023-03-24T03:50:09.877Z,13.10
2023-03-24T03:52:41.570Z,13.20
2023-03-24T03:55:09.227Z,13.30
2023-03-24T03:57:36.340Z,13.30
2023-03-24T04:00:17.369Z,13.30
2023-03-24T04:03:17.520Z,13.30
2023-03-24T04:05:51.344Z,13.40
2023-03-24T04:08:23.452Z,13.30
2023-03-24T04:10:59.528Z,13.30
2023-03-24T04:13:32.695Z,13.50
2023-03-24T04:16:22.682Z,13.50
2023-03-24T04:19:05.965Z,13.50
2023-03-24T04:21:34.403Z,13.60
2023-03-24T04:24:26.409Z,13.70
2023-03-24T04:27:00.735Z,14.00
2023-03-24T04:29:34.578Z,14.20
2023-03-24T04:32:09.141Z,14.30
2023-03-24T04:34:39.366Z,14.20
2023-03-24T04:37:20.496Z,14.00
2023-03-24T04:40:00.199Z,13.60
2023-03-24T04:42:38.151Z,13.40
2023-03-24T04:45:06.107Z,13.30
2023-03-24T04:47:58.847Z,13.30
2023-03-24T04:50:43.170Z,13.20
2023-03-24T04:53:18.196Z,13.00
2023-03-24T04:55:46.103Z,12.70
2023-03-24T04:58:13.100Z,12.50
2023-03-24T05:00:44.333Z,12.60
2023-03-24T05:03:14.227Z,12.50
2023-03-24T05:05:45.126Z,12.40
2023-03-24T05:08:12.582Z,12.10
2023-03-24T05:10:39.941Z,12.00
2023-03-24T05:13:08.211Z,12.00
2023-03-24T05:15:54.050Z,11.80
2023-03-24T05:18:53.800Z,11.70
2023-03-24T05:21:20.787Z,11.70
2023-03-24T05:23:47.829Z,11.60
2023-03-24T05:26:14.733Z,11.60
2023-03-24T05:28:59.413Z,11.60
2023-03-24T05:31:26.659Z,11.60
2023-03-24T05:34:03.076Z,11.60
2023-03-24T05:36:31.835Z,11.50
2023-03-24T05:38:59.895Z,11.60
2023-03-24T05:41:38.696Z,11.50
2023-03-24T05:44:05.826Z,11.50
2023-03-24T05:46:32.770Z,11.50
2023-03-24T05:49:02.885Z,11.50
2023-03-24T05:51:33.488Z,11.50
2023-03-24T05:54:06.096Z,11.50
2023-03-24T05:56:43.845Z,11.50
2023-03-24T05:59:39.959Z,11.50
2023-03-24T06:02:25.375Z,11.40
2023-03-24T06:04:57.873Z,11.50
2023-03-24T06:07:26.974Z,11.50
2023-03-24T06:09:58.259Z,11.50
2023-03-24T06:12:26.179Z,11.50
2023-03-24T06:15:00.929Z,11.60
2023-03-24T06:17:29.350Z,11.60
2023-03-24T06:20:04.978Z,11.60
2023-03-24T06:22:50.365Z,11.60
2023-03-24T06:25:26.249Z,11.60
2023-03-24T06:28:10.175Z,11.60
2023-03-24T06:30:37.296Z,11.70
2023-03-24T06:33:08.207Z,11.70
2023-03-24T06:35:36.045Z,11.90
2023-03-24T06:38:10.325Z,11.90
2023-03-24T06:40:37.784Z,11.90
2023-03-24T06:43:05.932Z,11.90
2023-03-24T06:45:39.594Z,11.80
2023-03-24T06:48:09.882Z,11.90
2023-03-24T06:50:38.836Z,11.90
2023-03-24T06:53:09.877Z,11.90
2023-03-24T06:55:37.984Z,11.90
2023-03-24T06:58:05.971Z,12.00
2023-03-24T07:00:52.160Z,12.00
2023-03-24T07:03:30.755Z,12.00
2023-03-24T07:06:16.606Z,12.00
2023-03-24T07:08:44.886Z,11.90
2023-03-24T07:11:11.795Z,12.00
2023-03-24T07:13:45.577Z,12.00
2023-03-24T07:16:12.651Z,12.00
2023-03-24T07:18:41.364Z,12.00
2023-03-24T07:21:08.623Z,12.20
2023-03-24T07:23:37.187Z,12.20
2023-03-24T07:26:11.758Z,12.20
2023-03-24T07:28:47.735Z,12.30
2023-03-24T07:31:38.149Z,12.30
2023-03-24T07:34:09.163Z,12.30
2023-03-24T07:36:43.728Z,12.40
2023-03-24T07:39:14.917Z,12.40
2023-03-24T07:41:41.864Z,12.30
2023-03-24T07:44:18.823Z,12.40
2023-03-24T07:46:53.348Z,12.40
2023-03-24T07:49:21.212Z,12.40
2023-03-24T07:51:59.171Z,12.50
2023-03-24T07:54:34.382Z,12.50
2023-03-24T07:57:01.708Z,12.40
2023-03-24T07:59:28.897Z,12.30
2023-03-24T08:02:04.774Z,12.40
2023-03-24T08:04:56.700Z,12.50
2023-03-24T08:07:55.921Z,12.50
2023-03-24T08:10:24.477Z,12.60
2023-03-24T08:12:52.033Z,12.60
2023-03-24T08:15:19.112Z,12.80
2023-03-24T08:17:47.541Z,12.90
2023-03-24T08:20:15.030Z,13.10
2023-03-24T08:22:43.105Z,13.20
2023-03-24T08:25:11.261Z,13.50
2023-03-24T08:27:39.051Z,13.50
2023-03-24T08:30:07.327Z,13.70
2023-03-24T08:32:34.597Z,13.70
2023-03-24T08:35:02.731Z,13.70
2023-03-24T08:37:29.729Z,13.80
2023-03-24T08:39:58.922Z,13.90
2023-03-24T08:42:26.088Z,14.00
2023-03-24T08:44:53.144Z,14.00
2023-03-24T08:47:20.052Z,14.00
2023-03-24T08:49:46.909Z,13.90
2023-03-24T08:52:13.872Z,13.80
2023-03-24T08:54:40.685Z,13.80
2023-03-24T08:57:07.509Z,13.80
2023-03-24T08:59:34.315Z,13.80
2023-03-24T09:02:01.937Z,13.80
2023-03-24T09:04:28.895Z,13.90
2023-03-24T09:07:02.329Z,14.00
2023-03-24T09:09:30.601Z,14.00
2023-03-24T09:11:57.374Z,13.80
2023-03-24T09:14:24.244Z,13.90
2023-03-24T09:16:51.417Z,14.00
2023-03-24T09:19:18.430Z,14.00
2023-03-24T09:21:46.420Z,14.00
2023-03-24T09:24:13.414Z,14.00
2023-03-24T09:26:40.280Z,14.10
2023-03-24T09:29:07.341Z,14.20
2023-03-24T09:31:34.771Z,14.20
2023-03-24T09:34:04.292Z,14.30
2023-03-24T09:36:31.331Z,14.30
2023-03-24T09:38:58.192Z,14.20
2023-03-24T09:41:27.942Z,14.10
2023-03-24T09:43:56.787Z,14.10
2023-03-24T09:46:28.817Z,14.00
2023-03-24T09:48:57.512Z,14.10
2023-03-24T09:51:25.684Z,14.20
2023-03-24T09:54:04.897Z,14.20
2023-03-24T09:56:33.370Z,14.10
2023-03-24T09:59:02.821Z,14.20
2023-03-24T10:01:30.101Z,14.10
2023-03-24T10:03:58.354Z,13.90
2023-03-24T10:06:34.741Z,13.70
2023-03-24T10:09:20.120Z,13.50
2023-03-24T10:11:51.911Z,13.30
2023-03-24T10:14:37.430Z,13.30
2023-03-24T10:17:23.431Z,13.30
2023-03-24T10:19:50.316Z,13.50
2023-03-24T10:22:32.738Z,13.60
2023-03-24T10:25:06.487Z,13.50
2023-03-24T10:27:40.151Z,13.50
2023-03-24T10:30:12.470Z,13.70
2023-03-24T10:32:41.654Z,13.80
2023-03-24T10:35:14.252Z,13.80
2023-03-24T10:37:41.211Z,13.80
2023-03-24T10:40:14.058Z,13.80
2023-03-24T10:42:41.041Z,13.80
2023-03-24T10:45:12.268Z,13.80
2023-03-24T10:47:39.720Z,13.80
2023-03-24T10:50:12.651Z,13.70
2023-03-24T10:52:47.410Z,13.60
2023-03-24T10:55:16.835Z,13.30
2023-03-24T10:57:45.406Z,13.10
2023-03-24T11:00:32.043Z,13.00
2023-03-24T11:03:00.596Z,12.90
2023-03-24T11:05:30.652Z,12.80
2023-03-24T11:08:13.223Z,12.80
2023-03-24T11:10:40.498Z,12.80
2023-03-24T11:13:18.401Z,12.80
2023-03-24T11:16:06.224Z,12.70
2023-03-24T11:18:33.272Z,12.60
2023-03-24T11:21:04.038Z,12.60
2023-03-24T11:23:34.140Z,12.70
2023-03-24T11:26:07.040Z,12.80
2023-03-24T11:28:45.948Z,12.90
2023-03-24T11:31:19.244Z,13.10
2023-03-24T11:33:51.690Z,13.30
2023-03-24T11:36:30.985Z,13.30
2023-03-24T11:39:10.841Z,13.40
2023-03-24T11:41:58.641Z,13.50
2023-03-24T11:44:25.817Z,13.50
2023-03-24T11:46:55.067Z,13.50
2023-03-24T11:49:26.164Z,13.40
2023-03-24T11:51:54.693Z,13.60
2023-03-24T11:54:23.688Z,13.50
2023-03-24T11:56:52.901Z,13.60
2023-03-24T11:59:19.741Z,13.80
2023-03-24T12:01:51.421Z,14.00
2023-03-24T12:04:36.630Z,14.20
2023-03-24T12:07:22.493Z,14.60
2023-03-24T12:10:04.661Z,14.90
2023-03-24T12:12:37.670Z,15.20
2023-03-24T12:15:07.864Z,15.20
2023-03-24T12:17:43.175Z,14.90
2023-03-24T12:20:21.546Z,14.30
2023-03-24T12:23:00.550Z,13.40
2023-03-24T12:25:39.441Z,12.60
2023-03-24T12:28:18.265Z,12.20
2023-03-24T12:30:53.320Z,11.90
2023-03-24T12:33:45.012Z,11.70
2023-03-24T12:36:24.812Z,11.40
2023-03-24T12:38:51.832Z,11.20
2023-03-24T12:41:18.696Z,11.10
2023-03-24T12:44:04.043Z,11.10
2023-03-24T12:46:40.634Z,11.00
2023-03-24T12:49:23.002Z,11.00
2023-03-24T12:52:02.101Z,11.00
2023-03-24T12:54:38.105Z,11.10
2023-03-24T12:57:08.171Z,11.10
2023-03-24T12:59:41.162Z,11.20
2023-03-24T13:02:08.443Z,11.20
2023-03-24T13:04:38.490Z,11.30
2023-03-24T13:07:07.253Z,11.30
2023-03-24T13:09:49.384Z,11.20
2023-03-24T13:12:18.692Z,11.20
2023-03-24T13:14:46.025Z,11.00
2023-03-24T13:17:34.174Z,10.90
2023-03-24T13:20:01.996Z,10.90
2023-03-24T13:22:29.373Z,10.90
2023-03-24T13:24:56.787Z,10.90
2023-03-24T13:27:29.181Z,10.80
2023-03-24T13:30:14.858Z,10.90
2023-03-24T13:32:41.801Z,10.90
2023-03-24T13:35:16.184Z,10.90
2023-03-24T13:37:54.015Z,10.90
2023-03-24T13:40:22.887Z,10.90
2023-03-24T13:42:53.866Z,11.10
2023-03-24T13:45:27.172Z,11.30
2023-03-24T13:48:09.160Z,11.30
2023-03-24T13:50:51.543Z,11.60
2023-03-24T13:53:18.539Z,12.00
2023-03-24T13:55:48.173Z,12.20
2023-03-24T13:58:20.053Z,12.30
2023-03-24T14:01:14.897Z,12.10
2023-03-24T14:03:43.402Z,12.10
2023-03-24T14:06:11.103Z,12.30
2023-03-24T14:08:44.246Z,12.50
2023-03-24T14:11:31.612Z,12.50
2023-03-24T14:14:16.730Z,12.40
2023-03-24T14:16:49.175Z,12.40
2023-03-24T14:19:19.442Z,12.60
2023-03-24T14:21:52.616Z,12.90
2023-03-24T14:24:23.960Z,12.90
2023-03-24T14:26:50.969Z,12.70
2023-03-24T14:29:37.450Z,12.50
2023-03-24T14:32:17.089Z,12.80
2023-03-24T14:35:06.612Z,13.70
2023-03-24T14:37:33.548Z,14.00
2023-03-24T14:40:00.987Z,14.30
2023-03-24T14:42:30.801Z,14.00
2023-03-24T14:44:59.134Z,14.10
2023-03-24T14:47:29.757Z,13.70
2023-03-24T14:49:57.822Z,13.30
2023-03-24T14:52:27.379Z,13.30
2023-03-24T14:55:21.800Z,13.30
2023-03-24T14:57:53.190Z,13.20
2023-03-24T15:01:03.928Z,13.10
2023-03-24T15:03:42.853Z,13.10
2023-03-24T15:06:14.729Z,13.00
2023-03-24T15:08:52.315Z,12.90
2023-03-24T15:11:22.686Z,13.00
2023-03-24T15:13:53.658Z,13.10
2023-03-24T15:16:22.359Z,13.40
2023-03-24T15:19:01.277Z,13.40
2023-03-24T15:21:30.674Z,13.40
2023-03-24T15:23:57.736Z,13.50
2023-03-24T15:26:25.673Z,13.70
2023-03-24T15:29:05.344Z,13.80
2023-03-24T15:31:32.762Z,13.90
2023-03-24T15:34:06.964Z,13.80
2023-03-24T15:36:35.955Z,13.60
2023-03-24T15:39:17.229Z,13.70
2023-03-24T15:41:44.378Z,13.80
2023-03-24T15:44:16.475Z,13.70
2023-03-24T15:46:43.758Z,13.60
2023-03-24T15:49:18.400Z,13.50
2023-03-24T15:51:46.100Z,14.30
2023-03-24T15:54:23.900Z,17.10
2023-03-24T15:57:01.598Z,17.20
2023-03-24T15:59:36.063Z,17.20
2023-03-24T16:02:12.038Z,17.00
2023-03-24T16:04:40.598Z,16.00
2023-03-24T16:07:07.523Z,15.60
2023-03-24T16:09:40.940Z,15.10
2023-03-24T16:12:11.433Z,14.50
2023-03-24T16:14:38.921Z,14.20
2023-03-24T16:17:06.058Z,14.00
2023-03-24T16:19:33.059Z,14.60
2023-03-24T16:22:00.026Z,16.00
2023-03-24T16:24:27.109Z,16.50
2023-03-24T16:26:54.002Z,15.90
2023-03-24T16:29:21.979Z,15.40
2023-03-24T16:31:53.691Z,14.80
2023-03-24T16:34:22.110Z,14.60
2023-03-24T16:36:49.988Z,14.40
2023-03-24T16:39:18.640Z,14.30
2023-03-24T16:41:45.631Z,14.20
2023-03-24T16:44:13.328Z,14.10
2023-03-24T16:46:41.854Z,14.00
2023-03-24T16:49:12.532Z,14.10
2023-03-24T16:51:39.655Z,14.00
2023-03-24T16:54:07.795Z,13.90
2023-03-24T16:56:35.047Z,13.90
2023-03-24T16:59:02.282Z,13.80
2023-03-24T17:01:29.328Z,13.80
2023-03-24T17:04:03.640Z,13.70
2023-03-24T17:06:31.960Z,13.70
2023-03-24T17:08:59.051Z,13.60
2023-03-24T17:11:27.235Z,13.40
2023-03-24T17:13:54.473Z,13.30
2023-03-24T17:16:22.836Z,13.20
2023-03-24T17:18:49.866Z,13.10
2023-03-24T17:21:17.653Z,13.00
2023-03-24T17:23:49.308Z,12.90
2023-03-24T17:26:16.865Z,12.80
2023-03-24T17:28:43.950Z,12.60
2023-03-24T17:31:11.581Z,12.60
2023-03-24T17:33:38.461Z,12.50
2023-03-24T17:36:05.742Z,12.50
2023-03-24T17:38:32.516Z,12.40
2023-03-24T17:41:03.968Z,12.40
2023-03-24T17:43:31.131Z,12.30
2023-03-24T17:45:58.394Z,12.20
2023-03-24T17:48:25.361Z,12.10
2023-03-24T17:50:52.401Z,12.10
2023-03-24T17:53:25.671Z,12.00
2023-03-24T17:55:53.916Z,12.00
2023-03-24T17:58:21.363Z,12.00
2023-03-24T18:00:48.793Z,12.00
2023-03-24T18:03:16.728Z,12.10
2023-03-24T18:05:44.425Z,12.00
2023-03-24T18:08:12.379Z,12.00
2023-03-24T18:10:39.330Z,11.90
2023-03-24T18:13:06.830Z,11.70
2023-03-24T18:15:34.671Z,11.40
2023-03-24T18:18:01.976Z,11.30
2023-03-24T18:20:29.215Z,11.20
2023-03-24T18:22:56.206Z,11.00
2023-03-24T18:25:23.236Z,10.90
2023-03-24T18:27:50.011Z,11.00
2023-03-24T18:30:17.019Z,11.00
2023-03-24T18:32:43.911Z,11.00
2023-03-24T18:35:12.169Z,10.80
2023-03-24T18:37:39.163Z,10.80
2023-03-24T18:40:08.374Z,10.70
2023-03-24T18:42:35.373Z,10.60
2023-03-24T18:45:02.277Z,10.50
2023-03-24T18:47:29.306Z,10.50
2023-03-24T18:49:56.354Z,10.50
2023-03-24T18:52:23.351Z,10.60
2023-03-24T18:54:50.397Z,10.80
2023-03-24T18:57:17.275Z,10.90
2023-03-24T18:59:44.226Z,10.80
2023-03-24T19:02:11.787Z,10.70
2023-03-24T19:04:38.712Z,10.70
2023-03-24T19:07:08.295Z,10.90
2023-03-24T19:09:35.226Z,10.80
2023-03-24T19:12:02.026Z,10.70
2023-03-24T19:14:28.901Z,10.70
2023-03-24T19:16:57.464Z,10.70
2023-03-24T19:19:24.589Z,10.60
2023-03-24T19:21:51.428Z,10.50
2023-03-24T19:24:18.258Z,10.50
2023-03-24T19:26:45.101Z,10.60
2023-03-24T19:29:11.922Z,10.50
2023-03-24T19:31:38.737Z,10.50
2023-03-24T19:34:05.655Z,10.40
2023-03-24T19:36:34.235Z,10.40
2023-03-24T19:39:01.986Z,10.40
2023-03-24T19:41:28.810Z,10.30
2023-03-24T19:43:55.817Z,10.20
2023-03-24T19:46:23.131Z,10.20
2023-03-24T19:48:50.028Z,10.10
2023-03-24T19:51:17.054Z,10.10
2023-03-24T19:53:43.921Z,10.10
2023-03-24T19:56:10.837Z,10.10
2023-03-24T19:58:37.962Z,10.10
2023-03-24T20:01:04.930Z,10.10
2023-03-24T20:03:32.115Z,10.10
2023-03-24T20:06:02.964Z,10.10
2023-03-24T20:08:29.821Z,10.30
2023-03-24T20:10:56.618Z,10.20
2023-03-24T20:13:25.830Z,10.30
2023-03-24T20:15:52.925Z,10.40
2023-03-24T20:18:20.615Z,10.70
2023-03-24T20:20:47.440Z,10.80
2023-03-24T20:23:14.263Z,10.80
2023-03-24T20:25:41.953Z,10.80
2023-03-24T20:28:08.873Z,10.90
2023-03-24T20:30:40.081Z,10.80
2023-03-24T20:33:07.062Z,10.80
2023-03-24T20:35:35.932Z,10.80
2023-03-24T20:38:03.493Z,10.60
2023-03-24T20:40:30.501Z,10.50
2023-03-24T20:42:57.488Z,10.40
2023-03-24T20:45:24.548Z,10.50
2023-03-24T20:47:52.242Z,10.50
2023-03-24T20:50:19.973Z,10.70
2023-03-24T20:52:47.483Z,10.70
2023-03-24T20:55:14.687Z,10.70
2023-03-24T20:57:42.319Z,10.70
2023-03-24T21:00:14.800Z,10.60
2023-03-24T21:02:42.612Z,10.50
2023-03-24T21:05:09.763Z,10.60
2023-03-24T21:07:38.503Z,10.70
2023-03-24T21:10:06.417Z,10.80
2023-03-24T21:12:33.787Z,10.80
2023-03-24T21:15:01.435Z,10.90
2023-03-24T21:17:32.406Z,10.90
2023-03-24T21:20:02.326Z,10.90
2023-03-24T21:22:38.069Z,10.60
2023-03-24T21:25:05.475Z,10.20
2023-03-24T21:27:32.735Z,9.60
2023-03-24T21:29:59.610Z,9.40
2023-03-24T21:32:26.491Z,9.20
2023-03-24T21:34:53.354Z,9.10
2023-03-24T21:37:20.199Z,9.00
2023-03-24T21:39:47.141Z,9.00
2023-03-24T21:42:15.326Z,8.90
2023-03-24T21:44:42.803Z,8.80
2023-03-24T21:47:09.700Z,8.70
2023-03-24T21:49:36.559Z,8.80
2023-03-24T21:52:04.411Z,8.80
2023-03-24T21:54:33.468Z,8.70
2023-03-24T21:57:00.528Z,8.60
2023-03-24T21:59:27.588Z,8.60
2023-03-24T22:01:54.467Z,8.60
2023-03-24T22:04:21.383Z,8.60
2023-03-24T22:06:48.448Z,8.60
2023-03-24T22:09:18.813Z,8.50
2023-03-24T22:11:46.467Z,8.50
2023-03-24T22:14:13.311Z,8.60
2023-03-24T22:16:40.506Z,8.50
2023-03-24T22:19:07.395Z,8.40
2023-03-24T22:21:34.239Z,8.30
2023-03-24T22:24:01.273Z,8.20
2023-03-24T22:26:28.253Z,8.40
2023-03-24T22:28:56.276Z,8.40
2023-03-24T22:31:24.245Z,8.50
2023-03-24T22:33:51.239Z,8.60
2023-03-24T22:36:18.139Z,8.60
2023-03-24T22:38:44.984Z,8.70
2023-03-24T22:41:12.428Z,8.70
2023-03-24T22:43:39.866Z,8.90
2023-03-24T22:46:07.359Z,8.90
2023-03-24T22:48:34.267Z,9.00
2023-03-24T22:51:01.133Z,8.90
2023-03-24T22:53:28.029Z,9.00
2023-03-24T22:55:54.944Z,9.10
2023-03-24T22:58:21.812Z,9.10
2023-03-24T23:00:49.913Z,9.10
2023-03-24T23:03:16.928Z,9.20
2023-03-24T23:05:45.574Z,9.20
2023-03-24T23:08:14.448Z,9.30
2023-03-24T23:10:43.078Z,9.30
2023-03-24T23:13:10.639Z,9.40
2023-03-24T23:15:38.406Z,9.30
2023-03-24T23:18:05.761Z,9.00
2023-03-24T23:20:33.070Z,8.90
2023-03-24T23:23:01.342Z,8.70
2023-03-24T23:25:31.066Z,8.50
2023-03-24T23:27:58.533Z,8.50
2023-03-24T23:30:25.738Z,8.40
2023-03-24T23:32:53.200Z,8.40
2023-03-24T23:35:20.303Z,8.40
2023-03-24T23:37:47.268Z,8.40
2023-03-24T23:40:15.155Z,8.40
2023-03-24T23:42:43.330Z,8.40
2023-03-24T23:45:11.117Z,8.40
2023-03-24T23:47:38.122Z,8.50
2023-03-24T23:50:06.355Z,8.50
2023-03-24T23:52:34.146Z,8.50
2023-03-24T23:55:03.884Z,8.50
2023-03-24T23:57:30.750Z,8.60
2023-03-24T23:59:57.799Z,8.60
